sensor_id;sensor_type;location;lat;lon;timestamp;temperature;humidity
52321;DHT22;38261;54.090;13.382;2023-04-01T00:00:32;5.60;99.90
52321;DHT22;38261;54.090;13.382;2023-04-01T00:01:54;5.60;99.90
52321;DHT22;38261;54.090;13.382;2023-04-01T00:03:17;5.50;99.90
52321;DHT22;38261;54.090;13.382;2023-04-01T00:04:39;5.50;99.90
52321;DHT22;38261;54.090;13.382;2023-04-01T00:06:01;5.50;99.90
52321;DHT22;38261;54.090;13.382;2023-04-01T00:07:24;5.50;99.90
52321;DHT22;38261;54.090;13.382;2023-04-01T00:08:51;5.50;99.90
52321;DHT22;38261;54.090;13.382;2023-04-01T00:10:16;5.50;99.90
52321;DHT22;38261;54.090;13.382;2023-04-01T00:11:38;5.40;99.90
52321;DHT22;38261;54.090;13.382;2023-04-01T00:13:00;5.40;99.90
52321;DHT22;38261;54.090;13.382;2023-04-01T00:14:22;5.40;99.90
52321;DHT22;38261;54.090;13.382;2023-04-01T00:15:44;5.40;99.90
52321;DHT22;38261;54.090;13.382;2023-04-01T00:17:07;5.40;99.90
52321;DHT22;38261;54.090;13.382;2023-04-01T00:18:30;5.40;99.90
52321;DHT22;38261;54.090;13.382;2023-04-01T00:19:54;5.50;99.90
52321;DHT22;38261;54.090;13.382;2023-04-01T00:21:18;5.40;99.90
52321;DHT22;38261;54.090;13.382;2023-04-01T00:22:40;5.40;99.90
52321;DHT22;38261;54.090;13.382;2023-04-01T00:24:03;5.40;99.90
52321;DHT22;38261;54.090;13.382;2023-04-01T00:25:25;5.40;99.90
52321;DHT22;38261;54.090;13.382;2023-04-01T00:26:47;5.40;99.90
52321;DHT22;38261;54.090;13.382;2023-04-01T00:28:09;5.40;99.90
52321;DHT22;38261;54.090;13.382;2023-04-01T00:29:31;5.40;99.90
52321;DHT22;38261;54.090;13.382;2023-04-01T00:30:54;5.40;99.90
52321;DHT22;38261;54.090;13.382;2023-04-01T00:32:16;5.40;99.90
52321;DHT22;38261;54.090;13.382;2023-04-01T00:33:39;5.40;99.90
52321;DHT22;38261;54.090;13.382;2023-04-01T00:35:03;5.40;99.90
52321;DHT22;38261;54.090;13.382;2023-04-01T00:36:25;5.30;99.90
52321;DHT22;38261;54.090;13.382;2023-04-01T00:37:47;5.30;99.90
52321;DHT22;38261;54.090;13.382;2023-04-01T00:39:10;5.30;99.90
52321;DHT22;38261;54.090;13.382;2023-04-01T00:40:38;5.30;99.90
52321;DHT22;38261;54.090;13.382;2023-04-01T00:42:02;5.30;99.90
52321;DHT22;38261;54.090;13.382;2023-04-01T00:43:24;5.30;99.90
52321;DHT22;38261;54.090;13.382;2023-04-01T00:44:54;5.30;99.90
52321;DHT22;38261;54.090;13.382;2023-04-01T00:46:16;5.30;99.90
52321;DHT22;38261;54.090;13.382;2023-04-01T00:47:39;5.30;99.90
52321;DHT22;38261;54.090;13.382;2023-04-01T00:49:01;5.30;99.90
52321;DHT22;38261;54.090;13.382;2023-04-01T00:50:24;5.20;99.90
52321;DHT22;38261;54.090;13.382;2023-04-01T00:51:48;5.20;99.90
52321;DHT22;38261;54.090;13.382;2023-04-01T00:53:12;5.20;99.90
52321;DHT22;38261;54.090;13.382;2023-04-01T00:54:36;5.20;99.90
52321;DHT22;38261;54.090;13.382;2023-04-01T00:56:06;5.20;99.90
52321;DHT22;38261;54.090;13.382;2023-04-01T00:57:35;5.20;99.90
52321;DHT22;38261;54.090;13.382;2023-04-01T00:59:05;5.20;99.90
52321;DHT22;38261;54.090;13.382;2023-04-01T01:00:30;5.20;99.90
52321;DHT22;38261;54.090;13.382;2023-04-01T01:01:53;5.20;99.90
52321;DHT22;38261;54.090;13.382;2023-04-01T01:03:15;5.20;99.90
52321;DHT22;38261;54.090;13.382;2023-04-01T01:04:38;5.20;99.90
52321;DHT22;38261;54.090;13.382;2023-04-01T01:06:16;5.10;99.90
52321;DHT22;38261;54.090;13.382;2023-04-01T01:09:57;5.20;99.90
52321;DHT22;38261;54.090;13.382;2023-04-01T01:11:36;5.10;99.90
52321;DHT22;38261;54.090;13.382;2023-04-01T01:13:23;5.20;99.90
52321;DHT22;38261;54.090;13.382;2023-04-01T01:16:28;5.10;99.90
52321;DHT22;38261;54.090;13.382;2023-04-01T01:23:28;5.10;99.90
52321;DHT22;38261;54.090;13.382;2023-04-01T01:26:51;5.00;99.90
52321;DHT22;38261;54.090;13.382;2023-04-01T01:33:41;5.00;99.90
52321;DHT22;38261;54.090;13.382;2023-04-01T01:35:35;5.00;99.90
52321;DHT22;38261;54.090;13.382;2023-04-01T01:37:02;5.00;99.90
52321;DHT22;38261;54.090;13.382;2023-04-01T01:38:30;5.00;99.90
52321;DHT22;38261;54.090;13.382;2023-04-01T01:39:56;5.00;99.90
52321;DHT22;38261;54.090;13.382;2023-04-01T01:41:21;5.00;99.90
52321;DHT22;38261;54.090;13.382;2023-04-01T01:42:48;5.00;99.90
52321;DHT22;38261;54.090;13.382;2023-04-01T01:44:15;5.00;99.90
52321;DHT22;38261;54.090;13.382;2023-04-01T01:45:42;5.00;99.90
52321;DHT22;38261;54.090;13.382;2023-04-01T01:47:05;5.00;99.90
52321;DHT22;38261;54.090;13.382;2023-04-01T01:48:29;5.00;99.90
52321;DHT22;38261;54.090;13.382;2023-04-01T01:49:53;5.00;99.90
52321;DHT22;38261;54.090;13.382;2023-04-01T01:51:18;5.00;99.90
52321;DHT22;38261;54.090;13.382;2023-04-01T01:52:40;5.00;99.90
52321;DHT22;38261;54.090;13.382;2023-04-01T01:54:02;5.00;99.90
52321;DHT22;38261;54.090;13.382;2023-04-01T01:55:34;5.00;99.90
52321;DHT22;38261;54.090;13.382;2023-04-01T01:57:06;5.00;99.90
52321;DHT22;38261;54.090;13.382;2023-04-01T01:58:39;4.90;99.90
52321;DHT22;38261;54.090;13.382;2023-04-01T02:00:07;5.00;99.90
52321;DHT22;38261;54.090;13.382;2023-04-01T02:01:38;5.00;99.90
52321;DHT22;38261;54.090;13.382;2023-04-01T02:03:01;5.00;99.90
52321;DHT22;38261;54.090;13.382;2023-04-01T02:04:24;5.00;99.90
52321;DHT22;38261;54.090;13.382;2023-04-01T02:05:48;5.00;99.90
52321;DHT22;38261;54.090;13.382;2023-04-01T02:07:16;4.90;99.90
52321;DHT22;38261;54.090;13.382;2023-04-01T02:08:43;4.90;99.90
52321;DHT22;38261;54.090;13.382;2023-04-01T02:10:07;4.90;99.90
52321;DHT22;38261;54.090;13.382;2023-04-01T02:11:35;4.90;99.90
52321;DHT22;38261;54.090;13.382;2023-04-01T02:13:01;4.90;99.90
52321;DHT22;38261;54.090;13.382;2023-04-01T02:16:33;4.90;99.90
52321;DHT22;38261;54.090;13.382;2023-04-01T02:17:57;4.80;99.90
52321;DHT22;38261;54.090;13.382;2023-04-01T02:19:20;4.80;99.90
52321;DHT22;38261;54.090;13.382;2023-04-01T02:20:44;4.80;99.90
52321;DHT22;38261;54.090;13.382;2023-04-01T02:22:11;4.80;99.90
52321;DHT22;38261;54.090;13.382;2023-04-01T02:23:35;4.80;99.90
52321;DHT22;38261;54.090;13.382;2023-04-01T02:25:04;4.80;99.90
52321;DHT22;38261;54.090;13.382;2023-04-01T02:26:26;4.70;99.90
52321;DHT22;38261;54.090;13.382;2023-04-01T02:27:49;4.70;99.90
52321;DHT22;38261;54.090;13.382;2023-04-01T02:29:11;4.80;99.90
52321;DHT22;38261;54.090;13.382;2023-04-01T02:30:35;4.80;99.90
52321;DHT22;38261;54.090;13.382;2023-04-01T02:31:58;4.80;99.90
52321;DHT22;38261;54.090;13.382;2023-04-01T02:33:21;4.80;99.90
52321;DHT22;38261;54.090;13.382;2023-04-01T02:34:44;4.80;99.90
52321;DHT22;38261;54.090;13.382;2023-04-01T02:36:10;4.80;99.90
52321;DHT22;38261;54.090;13.382;2023-04-01T02:37:33;4.80;99.90
52321;DHT22;38261;54.090;13.382;2023-04-01T02:38:58;4.80;99.90
52321;DHT22;38261;54.090;13.382;2023-04-01T02:40:24;4.80;99.90
52321;DHT22;38261;54.090;13.382;2023-04-01T02:41:46;4.80;99.90
52321;DHT22;38261;54.090;13.382;2023-04-01T02:43:08;4.80;99.90
52321;DHT22;38261;54.090;13.382;2023-04-01T02:44:31;4.80;99.90
52321;DHT22;38261;54.090;13.382;2023-04-01T02:45:53;4.80;99.90
52321;DHT22;38261;54.090;13.382;2023-04-01T02:47:15;4.80;99.90
52321;DHT22;38261;54.090;13.382;2023-04-01T02:48:37;4.80;99.90
52321;DHT22;38261;54.090;13.382;2023-04-01T02:49:59;4.80;99.90
52321;DHT22;38261;54.090;13.382;2023-04-01T02:51:21;4.90;99.90
52321;DHT22;38261;54.090;13.382;2023-04-01T02:52:43;4.90;99.90
52321;DHT22;38261;54.090;13.382;2023-04-01T02:54:05;4.90;99.90
52321;DHT22;38261;54.090;13.382;2023-04-01T02:55:28;4.80;99.90
52321;DHT22;38261;54.090;13.382;2023-04-01T02:56:50;4.80;99.90
52321;DHT22;38261;54.090;13.382;2023-04-01T02:58:12;4.80;99.90
52321;DHT22;38261;54.090;13.382;2023-04-01T02:59:34;4.80;99.90
52321;DHT22;38261;54.090;13.382;2023-04-01T03:00:56;4.80;99.90
52321;DHT22;38261;54.090;13.382;2023-04-01T03:02:18;4.80;99.90
52321;DHT22;38261;54.090;13.382;2023-04-01T03:03:41;4.80;99.90
52321;DHT22;38261;54.090;13.382;2023-04-01T03:05:03;4.80;99.90
52321;DHT22;38261;54.090;13.382;2023-04-01T03:06:25;4.80;99.90
52321;DHT22;38261;54.090;13.382;2023-04-01T03:07:48;4.80;99.90
52321;DHT22;38261;54.090;13.382;2023-04-01T03:09:10;4.80;99.90
52321;DHT22;38261;54.090;13.382;2023-04-01T03:10:32;4.80;99.90
52321;DHT22;38261;54.090;13.382;2023-04-01T03:11:54;4.80;99.90
52321;DHT22;38261;54.090;13.382;2023-04-01T03:13:16;4.80;99.90
52321;DHT22;38261;54.090;13.382;2023-04-01T03:14:38;4.80;99.90
52321;DHT22;38261;54.090;13.382;2023-04-01T03:16:01;4.80;99.90
52321;DHT22;38261;54.090;13.382;2023-04-01T03:17:23;4.70;99.90
52321;DHT22;38261;54.090;13.382;2023-04-01T03:18:45;4.80;99.90
52321;DHT22;38261;54.090;13.382;2023-04-01T03:20:08;4.80;99.90
52321;DHT22;38261;54.090;13.382;2023-04-01T03:21:30;4.80;99.90
52321;DHT22;38261;54.090;13.382;2023-04-01T03:22:52;4.80;99.90
52321;DHT22;38261;54.090;13.382;2023-04-01T03:24:15;4.80;99.90
52321;DHT22;38261;54.090;13.382;2023-04-01T03:25:37;4.80;99.90
52321;DHT22;38261;54.090;13.382;2023-04-01T03:26:59;4.80;99.90
52321;DHT22;38261;54.090;13.382;2023-04-01T03:28:21;4.80;99.90
52321;DHT22;38261;54.090;13.382;2023-04-01T03:29:43;4.80;99.90
52321;DHT22;38261;54.090;13.382;2023-04-01T03:31:06;4.80;99.90
52321;DHT22;38261;54.090;13.382;2023-04-01T03:32:28;4.80;99.90
52321;DHT22;38261;54.090;13.382;2023-04-01T03:33:50;4.70;99.90
52321;DHT22;38261;54.090;13.382;2023-04-01T03:35:12;4.80;99.90
52321;DHT22;38261;54.090;13.382;2023-04-01T03:36:34;4.80;99.90
52321;DHT22;38261;54.090;13.382;2023-04-01T03:37:56;4.80;99.90
52321;DHT22;38261;54.090;13.382;2023-04-01T03:39:18;4.80;99.90
52321;DHT22;38261;54.090;13.382;2023-04-01T03:40:42;4.80;99.90
52321;DHT22;38261;54.090;13.382;2023-04-01T03:42:05;4.80;99.90
52321;DHT22;38261;54.090;13.382;2023-04-01T03:43:28;4.80;99.90
52321;DHT22;38261;54.090;13.382;2023-04-01T03:44:50;4.70;99.90
52321;DHT22;38261;54.090;13.382;2023-04-01T03:46:17;4.80;99.90
52321;DHT22;38261;54.090;13.382;2023-04-01T03:47:40;4.80;99.90
52321;DHT22;38261;54.090;13.382;2023-04-01T03:49:02;4.70;99.90
52321;DHT22;38261;54.090;13.382;2023-04-01T03:50:24;4.70;99.90
52321;DHT22;38261;54.090;13.382;2023-04-01T03:51:46;4.70;99.90
52321;DHT22;38261;54.090;13.382;2023-04-01T03:53:09;4.70;99.90
52321;DHT22;38261;54.090;13.382;2023-04-01T03:54:31;4.70;99.90
52321;DHT22;38261;54.090;13.382;2023-04-01T03:55:53;4.70;99.90
52321;DHT22;38261;54.090;13.382;2023-04-01T03:57:16;4.70;99.90
52321;DHT22;38261;54.090;13.382;2023-04-01T03:58:38;4.70;99.90
52321;DHT22;38261;54.090;13.382;2023-04-01T04:00:00;4.70;99.90
52321;DHT22;38261;54.090;13.382;2023-04-01T04:01:23;4.70;99.90
52321;DHT22;38261;54.090;13.382;2023-04-01T04:02:45;4.70;99.90
52321;DHT22;38261;54.090;13.382;2023-04-01T04:04:10;4.70;99.90
52321;DHT22;38261;54.090;13.382;2023-04-01T04:05:32;4.70;99.90
52321;DHT22;38261;54.090;13.382;2023-04-01T04:06:54;4.80;99.90
52321;DHT22;38261;54.090;13.382;2023-04-01T04:08:17;4.70;99.90
52321;DHT22;38261;54.090;13.382;2023-04-01T04:09:39;4.70;99.90
52321;DHT22;38261;54.090;13.382;2023-04-01T04:11:01;4.70;99.90
52321;DHT22;38261;54.090;13.382;2023-04-01T04:12:23;4.70;99.90
52321;DHT22;38261;54.090;13.382;2023-04-01T04:13:46;4.70;99.90
52321;DHT22;38261;54.090;13.382;2023-04-01T04:15:10;4.70;99.90
52321;DHT22;38261;54.090;13.382;2023-04-01T04:16:35;4.70;99.90
52321;DHT22;38261;54.090;13.382;2023-04-01T04:17:58;4.70;99.90
52321;DHT22;38261;54.090;13.382;2023-04-01T04:19:20;4.70;99.90
52321;DHT22;38261;54.090;13.382;2023-04-01T04:20:46;4.70;99.90
52321;DHT22;38261;54.090;13.382;2023-04-01T04:22:12;4.80;99.90
52321;DHT22;38261;54.090;13.382;2023-04-01T04:23:34;4.80;99.90
52321;DHT22;38261;54.090;13.382;2023-04-01T04:24:58;4.80;99.90
52321;DHT22;38261;54.090;13.382;2023-04-01T04:26:21;4.80;99.90
52321;DHT22;38261;54.090;13.382;2023-04-01T04:27:43;4.80;99.90
52321;DHT22;38261;54.090;13.382;2023-04-01T04:29:05;4.80;99.90
52321;DHT22;38261;54.090;13.382;2023-04-01T04:30:27;4.80;99.90
52321;DHT22;38261;54.090;13.382;2023-04-01T04:31:49;4.80;99.90
52321;DHT22;38261;54.090;13.382;2023-04-01T04:33:12;4.80;99.90
52321;DHT22;38261;54.090;13.382;2023-04-01T04:34:34;4.70;99.90
52321;DHT22;38261;54.090;13.382;2023-04-01T04:35:57;4.70;99.90
52321;DHT22;38261;54.090;13.382;2023-04-01T04:37:20;4.70;99.90
52321;DHT22;38261;54.090;13.382;2023-04-01T04:38:42;4.70;99.90
52321;DHT22;38261;54.090;13.382;2023-04-01T04:40:04;4.70;99.90
52321;DHT22;38261;54.090;13.382;2023-04-01T04:41:26;4.70;99.90
52321;DHT22;38261;54.090;13.382;2023-04-01T04:42:48;4.70;99.90
52321;DHT22;38261;54.090;13.382;2023-04-01T04:44:11;4.70;99.90
52321;DHT22;38261;54.090;13.382;2023-04-01T04:45:33;4.70;99.90
52321;DHT22;38261;54.090;13.382;2023-04-01T04:46:55;4.60;99.90
52321;DHT22;38261;54.090;13.382;2023-04-01T04:48:19;4.70;99.90
52321;DHT22;38261;54.090;13.382;2023-04-01T04:49:42;4.70;99.90
52321;DHT22;38261;54.090;13.382;2023-04-01T04:51:04;4.70;99.90
52321;DHT22;38261;54.090;13.382;2023-04-01T04:52:26;4.60;99.90
52321;DHT22;38261;54.090;13.382;2023-04-01T04:53:48;4.70;99.90
52321;DHT22;38261;54.090;13.382;2023-04-01T04:55:13;4.70;99.90
52321;DHT22;38261;54.090;13.382;2023-04-01T04:56:36;4.70;99.90
52321;DHT22;38261;54.090;13.382;2023-04-01T04:57:58;4.70;99.90
52321;DHT22;38261;54.090;13.382;2023-04-01T04:59:20;4.70;99.90
52321;DHT22;38261;54.090;13.382;2023-04-01T05:00:43;4.70;99.90
52321;DHT22;38261;54.090;13.382;2023-04-01T05:02:05;4.70;99.90
52321;DHT22;38261;54.090;13.382;2023-04-01T05:03:27;4.70;99.90
52321;DHT22;38261;54.090;13.382;2023-04-01T05:04:49;4.70;99.90
52321;DHT22;38261;54.090;13.382;2023-04-01T05:06:13;4.70;99.90
52321;DHT22;38261;54.090;13.382;2023-04-01T05:07:35;4.70;99.90
52321;DHT22;38261;54.090;13.382;2023-04-01T05:08:57;4.70;99.90
52321;DHT22;38261;54.090;13.382;2023-04-01T05:10:19;4.70;99.90
52321;DHT22;38261;54.090;13.382;2023-04-01T05:11:42;4.70;99.90
52321;DHT22;38261;54.090;13.382;2023-04-01T05:13:04;4.70;99.90
52321;DHT22;38261;54.090;13.382;2023-04-01T05:14:26;4.60;99.90
52321;DHT22;38261;54.090;13.382;2023-04-01T05:15:48;4.70;99.90
52321;DHT22;38261;54.090;13.382;2023-04-01T05:17:11;4.70;99.90
52321;DHT22;38261;54.090;13.382;2023-04-01T05:18:34;4.70;99.90
52321;DHT22;38261;54.090;13.382;2023-04-01T05:19:57;4.70;99.90
52321;DHT22;38261;54.090;13.382;2023-04-01T05:21:19;4.60;99.90
52321;DHT22;38261;54.090;13.382;2023-04-01T05:22:42;4.70;99.90
52321;DHT22;38261;54.090;13.382;2023-04-01T05:24:08;4.70;99.90
52321;DHT22;38261;54.090;13.382;2023-04-01T05:25:30;4.60;99.90
52321;DHT22;38261;54.090;13.382;2023-04-01T05:26:53;4.60;99.90
52321;DHT22;38261;54.090;13.382;2023-04-01T05:28:18;4.60;99.90
52321;DHT22;38261;54.090;13.382;2023-04-01T05:29:40;4.60;99.90
52321;DHT22;38261;54.090;13.382;2023-04-01T05:31:03;4.60;99.90
52321;DHT22;38261;54.090;13.382;2023-04-01T05:32:25;4.60;99.90
52321;DHT22;38261;54.090;13.382;2023-04-01T05:33:48;4.60;99.90
52321;DHT22;38261;54.090;13.382;2023-04-01T05:35:10;4.60;99.90
52321;DHT22;38261;54.090;13.382;2023-04-01T05:36:32;4.60;99.90
52321;DHT22;38261;54.090;13.382;2023-04-01T05:37:54;4.60;99.90
52321;DHT22;38261;54.090;13.382;2023-04-01T05:39:16;4.60;99.90
52321;DHT22;38261;54.090;13.382;2023-04-01T05:40:38;4.60;99.90
52321;DHT22;38261;54.090;13.382;2023-04-01T05:42:00;4.60;99.90
52321;DHT22;38261;54.090;13.382;2023-04-01T05:43:22;4.60;99.90
52321;DHT22;38261;54.090;13.382;2023-04-01T05:44:44;4.60;99.90
52321;DHT22;38261;54.090;13.382;2023-04-01T05:46:06;4.60;99.90
52321;DHT22;38261;54.090;13.382;2023-04-01T05:47:29;4.60;99.90
52321;DHT22;38261;54.090;13.382;2023-04-01T05:48:51;4.60;99.90
52321;DHT22;38261;54.090;13.382;2023-04-01T05:50:13;4.70;99.90
52321;DHT22;38261;54.090;13.382;2023-04-01T05:51:35;4.60;99.90
52321;DHT22;38261;54.090;13.382;2023-04-01T05:52:57;4.60;99.90
52321;DHT22;38261;54.090;13.382;2023-04-01T05:54:20;4.60;99.90
52321;DHT22;38261;54.090;13.382;2023-04-01T05:55:42;4.60;99.90
52321;DHT22;38261;54.090;13.382;2023-04-01T05:57:04;4.60;99.90
52321;DHT22;38261;54.090;13.382;2023-04-01T05:58:26;4.60;99.90
52321;DHT22;38261;54.090;13.382;2023-04-01T05:59:48;4.60;99.90
52321;DHT22;38261;54.090;13.382;2023-04-01T06:01:11;4.60;99.90
52321;DHT22;38261;54.090;13.382;2023-04-01T06:02:37;4.60;99.90
52321;DHT22;38261;54.090;13.382;2023-04-01T06:04:00;4.60;99.90
52321;DHT22;38261;54.090;13.382;2023-04-01T06:05:27;4.60;99.90
52321;DHT22;38261;54.090;13.382;2023-04-01T06:06:49;4.60;99.90
52321;DHT22;38261;54.090;13.382;2023-04-01T06:08:15;4.60;99.90
52321;DHT22;38261;54.090;13.382;2023-04-01T06:09:42;4.60;99.90
52321;DHT22;38261;54.090;13.382;2023-04-01T06:11:31;4.60;99.90
52321;DHT22;38261;54.090;13.382;2023-04-01T06:13:12;4.60;99.90
52321;DHT22;38261;54.090;13.382;2023-04-01T06:36:15;4.70;99.90
52321;DHT22;38261;54.090;13.382;2023-04-01T06:39:42;4.70;99.90
52321;DHT22;38261;54.090;13.382;2023-04-01T06:41:39;4.70;99.90
52321;DHT22;38261;54.090;13.382;2023-04-01T06:46:48;4.70;99.90
52321;DHT22;38261;54.090;13.382;2023-04-01T06:50:00;4.70;99.90
52321;DHT22;38261;54.090;13.382;2023-04-01T06:53:21;4.70;99.90
52321;DHT22;38261;54.090;13.382;2023-04-01T06:54:57;4.70;99.90
52321;DHT22;38261;54.090;13.382;2023-04-01T06:56:25;4.70;99.90
52321;DHT22;38261;54.090;13.382;2023-04-01T06:57:51;4.70;99.90
52321;DHT22;38261;54.090;13.382;2023-04-01T06:59:20;4.70;99.90
52321;DHT22;38261;54.090;13.382;2023-04-01T07:00:46;4.70;99.90
52321;DHT22;38261;54.090;13.382;2023-04-01T07:03:44;4.70;99.90
52321;DHT22;38261;54.090;13.382;2023-04-01T07:05:12;4.70;99.90
52321;DHT22;38261;54.090;13.382;2023-04-01T07:06:39;4.70;99.90
52321;DHT22;38261;54.090;13.382;2023-04-01T07:08:09;4.70;99.90
52321;DHT22;38261;54.090;13.382;2023-04-01T07:09:38;4.70;99.90
52321;DHT22;38261;54.090;13.382;2023-04-01T07:11:06;4.70;99.90
52321;DHT22;38261;54.090;13.382;2023-04-01T07:12:40;4.70;99.90
52321;DHT22;38261;54.090;13.382;2023-04-01T07:15:37;4.70;99.90
52321;DHT22;38261;54.090;13.382;2023-04-01T07:18:37;4.60;99.90
52321;DHT22;38261;54.090;13.382;2023-04-01T07:20:23;4.60;99.90
52321;DHT22;38261;54.090;13.382;2023-04-01T07:21:54;4.60;99.90
52321;DHT22;38261;54.090;13.382;2023-04-01T07:24:45;4.50;99.90
52321;DHT22;38261;54.090;13.382;2023-04-01T07:26:22;4.50;99.90
52321;DHT22;38261;54.090;13.382;2023-04-01T07:27:45;4.50;99.90
52321;DHT22;38261;54.090;13.382;2023-04-01T07:29:13;4.50;99.90
52321;DHT22;38261;54.090;13.382;2023-04-01T07:31:13;4.50;99.90
52321;DHT22;38261;54.090;13.382;2023-04-01T07:32:56;4.50;99.90
52321;DHT22;38261;54.090;13.382;2023-04-01T07:34:26;4.50;99.90
52321;DHT22;38261;54.090;13.382;2023-04-01T07:35:57;4.50;99.90
52321;DHT22;38261;54.090;13.382;2023-04-01T07:40:55;4.60;99.90
52321;DHT22;38261;54.090;13.382;2023-04-01T07:44:16;4.60;99.90
52321;DHT22;38261;54.090;13.382;2023-04-01T07:47:43;4.50;99.90
52321;DHT22;38261;54.090;13.382;2023-04-01T07:49:41;4.50;99.90
52321;DHT22;38261;54.090;13.382;2023-04-01T07:51:16;4.50;99.90
52321;DHT22;38261;54.090;13.382;2023-04-01T07:55:00;4.50;99.90
52321;DHT22;38261;54.090;13.382;2023-04-01T07:58:15;4.50;99.90
52321;DHT22;38261;54.090;13.382;2023-04-01T07:59:55;4.50;99.90
52321;DHT22;38261;54.090;13.382;2023-04-01T08:01:52;4.50;99.90
52321;DHT22;38261;54.090;13.382;2023-04-01T08:03:38;4.50;99.90
52321;DHT22;38261;54.090;13.382;2023-04-01T08:09:57;4.50;99.90
52321;DHT22;38261;54.090;13.382;2023-04-01T08:13:51;4.50;99.90
52321;DHT22;38261;54.090;13.382;2023-04-01T08:15:28;4.50;99.90
52321;DHT22;38261;54.090;13.382;2023-04-01T08:17:05;4.50;99.90
52321;DHT22;38261;54.090;13.382;2023-04-01T08:21:52;4.40;99.90
52321;DHT22;38261;54.090;13.382;2023-04-01T08:23:31;4.40;99.90
52321;DHT22;38261;54.090;13.382;2023-04-01T08:24:57;4.40;99.90
52321;DHT22;38261;54.090;13.382;2023-04-01T08:26:37;4.40;99.90
52321;DHT22;38261;54.090;13.382;2023-04-01T08:28:20;4.40;99.90
52321;DHT22;38261;54.090;13.382;2023-04-01T08:30:02;4.40;99.90
52321;DHT22;38261;54.090;13.382;2023-04-01T08:32:09;4.40;99.90
52321;DHT22;38261;54.090;13.382;2023-04-01T08:34:40;4.50;99.90
52321;DHT22;38261;54.090;13.382;2023-04-01T08:36:17;4.50;99.90
52321;DHT22;38261;54.090;13.382;2023-04-01T08:37:41;4.50;99.90
52321;DHT22;38261;54.090;13.382;2023-04-01T08:39:07;4.50;99.90
52321;DHT22;38261;54.090;13.382;2023-04-01T08:47:05;4.60;99.90
52321;DHT22;38261;54.090;13.382;2023-04-01T08:48:35;4.60;99.90
52321;DHT22;38261;54.090;13.382;2023-04-01T08:50:25;4.60;99.90
52321;DHT22;38261;54.090;13.382;2023-04-01T08:57:40;4.70;99.90
52321;DHT22;38261;54.090;13.382;2023-04-01T09:01:36;4.70;99.90
52321;DHT22;38261;54.090;13.382;2023-04-01T09:03:28;4.70;99.90
52321;DHT22;38261;54.090;13.382;2023-04-01T09:21:22;4.80;99.90
52321;DHT22;38261;54.090;13.382;2023-04-01T09:28:16;4.80;99.90
52321;DHT22;38261;54.090;13.382;2023-04-01T09:33:11;4.70;99.90
52321;DHT22;38261;54.090;13.382;2023-04-01T09:36:43;4.60;99.90
52321;DHT22;38261;54.090;13.382;2023-04-01T09:39:38;4.70;99.90
52321;DHT22;38261;54.090;13.382;2023-04-01T09:49:28;4.80;99.90
52321;DHT22;38261;54.090;13.382;2023-04-01T09:51:10;4.90;99.90
52321;DHT22;38261;54.090;13.382;2023-04-01T09:54:32;4.90;99.90
52321;DHT22;38261;54.090;13.382;2023-04-01T10:18:40;5.40;99.90
52321;DHT22;38261;54.090;13.382;2023-04-01T10:20:26;5.40;99.90
52321;DHT22;38261;54.090;13.382;2023-04-01T10:29:18;5.50;99.90
52321;DHT22;38261;54.090;13.382;2023-04-01T10:39:31;5.40;99.90
52321;DHT22;38261;54.090;13.382;2023-04-01T10:53:45;5.50;99.90
52321;DHT22;38261;54.090;13.382;2023-04-01T11:08:38;5.50;99.90
52321;DHT22;38261;54.090;13.382;2023-04-01T11:11:46;5.40;99.90
52321;DHT22;38261;54.090;13.382;2023-04-01T11:15:11;5.40;99.90
52321;DHT22;38261;54.090;13.382;2023-04-01T11:25:46;5.40;99.90
52321;DHT22;38261;54.090;13.382;2023-04-01T11:32:20;5.30;99.90
52321;DHT22;38261;54.090;13.382;2023-04-01T11:34:11;5.20;99.90
52321;DHT22;38261;54.090;13.382;2023-04-01T11:35:50;5.20;99.90
52321;DHT22;38261;54.090;13.382;2023-04-01T11:40:19;5.10;99.90
52321;DHT22;38261;54.090;13.382;2023-04-01T11:43:34;5.20;99.90
52321;DHT22;38261;54.090;13.382;2023-04-01T11:52:05;5.30;99.90
52321;DHT22;38261;54.090;13.382;2023-04-01T12:04:32;5.30;99.90
52321;DHT22;38261;54.090;13.382;2023-04-01T12:09:51;5.20;99.90
52321;DHT22;38261;54.090;13.382;2023-04-01T12:11:27;5.30;99.90
52321;DHT22;38261;54.090;13.382;2023-04-01T12:13:24;5.20;99.90
52321;DHT22;38261;54.090;13.382;2023-04-01T12:17:02;5.20;99.90
52321;DHT22;38261;54.090;13.382;2023-04-01T12:21:00;5.20;99.90
52321;DHT22;38261;54.090;13.382;2023-04-01T12:24:17;5.10;99.90
52321;DHT22;38261;54.090;13.382;2023-04-01T12:27:43;5.20;99.90
52321;DHT22;38261;54.090;13.382;2023-04-01T12:46:19;5.00;99.90
52321;DHT22;38261;54.090;13.382;2023-04-01T12:51:15;5.10;99.90
52321;DHT22;38261;54.090;13.382;2023-04-01T13:00:24;5.10;99.90
52321;DHT22;38261;54.090;13.382;2023-04-01T13:11:13;5.00;99.90
52321;DHT22;38261;54.090;13.382;2023-04-01T13:12:28;4.90;99.90
52321;DHT22;38261;54.090;13.382;2023-04-01T13:18:01;5.00;99.90
52321;DHT22;38261;54.090;13.382;2023-04-01T13:21:32;5.20;99.90
52321;DHT22;38261;54.090;13.382;2023-04-01T13:27:42;5.20;99.90
52321;DHT22;38261;54.090;13.382;2023-04-01T13:29:20;5.20;99.90
52321;DHT22;38261;54.090;13.382;2023-04-01T13:34:03;5.10;99.90
52321;DHT22;38261;54.090;13.382;2023-04-01T13:35:42;5.10;99.90
52321;DHT22;38261;54.090;13.382;2023-04-01T13:42:39;5.10;99.90
52321;DHT22;38261;54.090;13.382;2023-04-01T13:44:16;5.00;99.90
52321;DHT22;38261;54.090;13.382;2023-04-01T13:53:06;4.90;99.90
52321;DHT22;38261;54.090;13.382;2023-04-01T14:02:05;5.00;99.90
52321;DHT22;38261;54.090;13.382;2023-04-01T14:09:25;5.00;99.90
52321;DHT22;38261;54.090;13.382;2023-04-01T14:11:21;5.10;99.90
52321;DHT22;38261;54.090;13.382;2023-04-01T14:22:13;5.20;99.90
52321;DHT22;38261;54.090;13.382;2023-04-01T14:28:07;5.00;99.90
52321;DHT22;38261;54.090;13.382;2023-04-01T14:31:25;5.10;99.90
52321;DHT22;38261;54.090;13.382;2023-04-01T14:40:00;4.90;99.90
52321;DHT22;38261;54.090;13.382;2023-04-01T14:44:00;4.90;99.90
52321;DHT22;38261;54.090;13.382;2023-04-01T14:49:42;4.80;99.90
52321;DHT22;38261;54.090;13.382;2023-04-01T14:50:47;4.90;99.90
52321;DHT22;38261;54.090;13.382;2023-04-01T14:53:57;4.80;99.90
52321;DHT22;38261;54.090;13.382;2023-04-01T14:55:31;4.80;99.90
52321;DHT22;38261;54.090;13.382;2023-04-01T14:57:15;4.80;99.90
52321;DHT22;38261;54.090;13.382;2023-04-01T14:58:41;4.80;99.90
52321;DHT22;38261;54.090;13.382;2023-04-01T15:21:59;4.80;99.90
52321;DHT22;38261;54.090;13.382;2023-04-01T15:25:18;4.80;99.90
52321;DHT22;38261;54.090;13.382;2023-04-01T15:27:02;4.80;99.90
52321;DHT22;38261;54.090;13.382;2023-04-01T15:29:03;4.80;99.90
52321;DHT22;38261;54.090;13.382;2023-04-01T15:34:17;4.70;99.90